Terminal Aerodrome Forecast
Issued by NWS

Home | Current Version | Previous Version | Text Only | Print | Product List | Glossary On
Versions: 1 2 3 4 5 6 7 8 9 10 11 12 13 14 15 16 17
000
FTUS46 KOTX 120523 CCA
TAFSFF
TAF COR
KSFF 120523Z 1206/1306 VRB02KT P6SM BKN009
     FM120700 VRB02KT 5SM BR OVC006
     FM121900 VRB02KT P6SM OVC009
     FM122100 VRB02KT P6SM SCT009
     FM130200 VRB02KT P6SM BKN009=

USA.gov is the U.S. government's official web portal to all federal, state and local government web resources and services.